Time,TemperatureF,DewpointF,PressureIn,WindDirection,WindDirectionDegrees,WindSpeedMPH,WindSpeedGustMPH,Humidity,HourlyPrecipIn,Conditions,Clouds,dailyrainin,SoftwareType,DateUTC
2013-05-02 00:14:00,72.0,67.0,29.89,SSW,205,0.0,186.0,84,0.06,,,0.06,weatherlink.com 1.10,2013-05-02 05:14:00,
2013-05-02 00:29:00,65.9,62.0,29.92,NNE,20,4.0,11.0,88,0.15,,,0.15,weatherlink.com 1.10,2013-05-02 05:29:00,
2013-05-02 00:44:00,61.7,60.0,30.00,West,281,12.0,39.0,93,0.97,,,0.97,weatherlink.com 1.10,2013-05-02 05:44:00,
2013-05-02 00:59:00,59.5,58.0,29.99,NW,321,7.0,18.0,94,1.23,,,1.23,weatherlink.com 1.10,2013-05-02 05:59:00,
2013-05-02 01:14:00,58.7,57.0,29.98,WNW,293,1.0,8.0,95,1.21,,,1.28,weatherlink.com 1.10,2013-05-02 06:14:00,
2013-05-02 01:29:00,58.8,58.0,29.96,WSW,248,0.0,2.0,96,1.10,,,1.30,weatherlink.com 1.10,2013-05-02 06:29:00,
2013-05-02 01:44:00,58.7,58.0,29.96,WNW,297,2.0,10.0,96,0.34,,,1.32,weatherlink.com 1.10,2013-05-02 06:44:00,
2013-05-02 01:59:00,58.9,58.0,29.95,NNW,328,6.0,12.0,96,0.10,,,1.33,weatherlink.com 1.10,2013-05-02 06:59:00,
2013-05-02 02:14:00,60.1,59.0,29.94,NW,325,9.0,17.0,97,0.05,,,1.33,weatherlink.com 1.10,2013-05-02 07:14:00,
2013-05-02 02:29:00,60.0,59.0,29.93,NNE,28,12.0,19.0,96,0.03,,,1.33,weatherlink.com 1.10,2013-05-02 07:29:00,
2013-05-02 02:44:00,60.5,59.0,29.93,North,357,8.0,16.0,94,0.01,,,1.33,weatherlink.com 1.10,2013-05-02 07:44:00,
2013-05-02 02:59:00,61.8,59.0,29.94,ENE,57,3.0,10.0,90,0.00,,,1.33,weatherlink.com 1.10,2013-05-02 07:59:00,
2013-05-02 03:15:00,62.2,59.0,29.94,NW,309,1.0,3.0,88,0.01,,,1.34,weatherlink.com 1.10,2013-05-02 08:15:00,
2013-05-02 03:30:00,60.8,59.0,29.93,SW,229,1.0,4.0,93,0.03,,,1.36,weatherlink.com 1.10,2013-05-02 08:30:00,
2013-05-02 03:45:00,60.5,59.0,29.89,SSW,210,0.0,2.0,93,0.03,,,1.36,weatherlink.com 1.10,2013-05-02 08:45:00,
2013-05-02 04:00:00,60.3,59.0,29.89,ENE,67,0.0,4.0,94,0.03,,,1.36,weatherlink.com 1.10,2013-05-02 09:00:00,
2013-05-02 04:15:00,60.1,58.0,29.88,NW,326,0.0,2.0,94,0.02,,,1.36,weatherlink.com 1.10,2013-05-02 09:15:00,
2013-05-02 04:30:00,60.1,58.0,29.86,SSW,205,2.0,8.0,94,0.00,,,1.36,weatherlink.com 1.10,2013-05-02 09:30:00,
2013-05-02 04:45:00,61.3,58.0,29.88,NNE,25,6.0,17.0,90,0.00,,,1.36,weatherlink.com 1.10,2013-05-02 09:45:00,
2013-05-02 05:00:00,59.5,57.0,29.90,NW,319,11.0,24.0,90,0.00,,,1.36,weatherlink.com 1.10,2013-05-02 10:00:00,
2013-05-02 05:15:00,57.4,55.0,29.91,West,264,12.0,20.0,90,0.00,,,1.36,weatherlink.com 1.10,2013-05-02 10:15:00,
2013-05-02 05:30:00,56.0,54.0,29.93,WNW,297,11.0,23.0,91,0.00,,,1.36,weatherlink.com 1.10,2013-05-02 10:30:00,
2013-05-02 05:45:00,55.3,53.0,29.95,NW,311,10.0,18.0,91,0.00,,,1.36,weatherlink.com 1.10,2013-05-02 10:45:00,
2013-05-02 06:00:00,54.8,52.0,29.95,WNW,284,8.0,21.0,90,0.00,,,1.36,weatherlink.com 1.10,2013-05-02 11:00:00,
2013-05-02 06:15:00,53.9,51.0,29.95,NW,308,11.0,28.0,89,0.00,,,1.36,weatherlink.com 1.10,2013-05-02 11:15:00,
2013-05-02 06:30:00,52.9,50.0,29.96,NW,316,10.0,24.0,89,0.00,,,1.36,weatherlink.com 1.10,2013-05-02 11:30:00,
2013-05-02 06:45:00,52.1,49.0,29.98,West,260,11.0,32.0,89,0.00,,,1.36,weatherlink.com 1.10,2013-05-02 11:45:00,
2013-05-02 07:00:00,51.4,48.0,30.00,NW,306,16.0,25.0,89,0.00,,,1.36,weatherlink.com 1.10,2013-05-02 12:00:00,
2013-05-02 07:15:00,50.8,47.0,30.02,NNW,334,8.0,23.0,88,0.00,,,1.36,weatherlink.com 1.10,2013-05-02 12:15:00,
2013-05-02 07:30:00,50.0,47.0,30.02,NNW,342,4.0,19.0,89,0.00,,,1.36,weatherlink.com 1.10,2013-05-02 12:30:00,
2013-05-02 07:45:00,49.2,46.0,30.03,WNW,298,13.0,23.0,88,0.00,,,1.36,weatherlink.com 1.10,2013-05-02 12:45:00,
2013-05-02 08:00:00,48.5,45.0,30.04,WNW,301,13.0,23.0,88,0.00,,,1.36,weatherlink.com 1.10,2013-05-02 13:00:00,
2013-05-02 08:15:00,48.0,45.0,30.05,NW,308,12.0,30.0,88,0.00,,,1.36,weatherlink.com 1.10,2013-05-02 13:15:00,
2013-05-02 08:30:00,47.7,44.0,30.06,NNW,329,10.0,25.0,88,0.00,,,1.36,weatherlink.com 1.10,2013-05-02 13:30:00,
2013-05-02 08:45:00,47.5,45.0,30.07,NW,304,7.0,19.0,89,0.00,,,1.36,weatherlink.com 1.10,2013-05-02 13:45:00,
2013-05-02 09:00:00,46.6,43.0,30.08,NW,321,21.0,23.0,88,0.00,,,1.36,weatherlink.com 1.10,2013-05-02 14:00:00,
2013-05-02 09:15:00,46.4,43.0,30.09,WNW,293,4.0,22.0,89,0.00,,,1.36,weatherlink.com 1.10,2013-05-02 14:15:00,
2013-05-02 09:31:00,45.6,42.0,30.10,NW,308,10.0,26.0,88,0.00,,,1.36,weatherlink.com 1.10,2013-05-02 14:31:00,
2013-05-02 09:46:00,45.3,42.0,30.12,NE,34,4.0,18.0,89,0.00,,,1.36,weatherlink.com 1.10,2013-05-02 14:46:00,
2013-05-02 10:01:00,44.9,42.0,30.14,NNW,335,7.0,16.0,88,0.00,,,1.36,weatherlink.com 1.10,2013-05-02 15:01:00,
2013-05-02 10:16:00,44.7,41.0,30.16,WNW,295,4.0,19.0,88,0.00,,,1.36,weatherlink.com 1.10,2013-05-02 15:16:00,
2013-05-02 10:31:00,44.8,41.0,30.18,West,276,9.0,20.0,87,0.00,,,1.36,weatherlink.com 1.10,2013-05-02 15:31:00,
2013-05-02 10:46:00,44.5,41.0,30.20,NW,314,10.0,24.0,86,0.00,,,1.36,weatherlink.com 1.10,2013-05-02 15:46:00,
2013-05-02 11:01:00,44.5,41.0,30.19,NW,322,17.0,23.0,86,0.00,,,1.36,weatherlink.com 1.10,2013-05-02 16:01:00,
2013-05-02 11:16:00,44.9,41.0,30.20,NW,312,17.0,24.0,85,0.00,,,1.36,weatherlink.com 1.10,2013-05-02 16:16:00,
2013-05-02 11:31:00,45.5,41.0,30.21,NW,317,8.0,32.0,85,0.00,,,1.36,weatherlink.com 1.10,2013-05-02 16:31:00,
2013-05-02 11:46:00,46.0,41.0,30.20,NW,312,11.0,24.0,84,0.00,,,1.36,weatherlink.com 1.10,2013-05-02 16:46:00,
2013-05-02 12:01:00,46.7,42.0,30.20,WNW,290,20.0,28.0,84,0.00,,,1.36,weatherlink.com 1.10,2013-05-02 17:01:00,
2013-05-02 12:16:00,47.4,43.0,30.20,WNW,298,11.0,27.0,83,0.00,,,1.36,weatherlink.com 1.10,2013-05-02 17:16:00,
2013-05-02 12:31:00,47.6,42.0,30.20,NNE,15,15.0,36.0,81,0.00,,,1.36,weatherlink.com 1.10,2013-05-02 17:31:00,
2013-05-02 12:46:00,48.4,43.0,30.20,NW,309,9.0,22.0,80,0.00,,,1.36,weatherlink.com 1.10,2013-05-02 17:46:00,
2013-05-02 13:01:00,48.5,42.0,30.20,WNW,302,9.0,33.0,79,0.00,,,1.36,weatherlink.com 1.10,2013-05-02 18:01:00,
2013-05-02 13:32:00,48.8,43.0,30.20,WNW,301,20.0,28.0,79,0.00,,,1.36,weatherlink.com 1.10,2013-05-02 18:32:00,
2013-05-02 13:47:00,48.9,42.0,30.21,NW,318,11.0,34.0,78,0.00,,,1.36,weatherlink.com 1.10,2013-05-02 18:47:00,
2013-05-02 14:02:00,48.0,42.0,30.21,NNW,338,12.0,29.0,79,0.00,,,1.36,weatherlink.com 1.10,2013-05-02 19:02:00,
2013-05-02 14:17:00,48.5,42.0,30.22,WNW,302,6.0,23.0,78,0.00,,,1.36,weatherlink.com 1.10,2013-05-02 19:17:00,
2013-05-02 14:32:00,48.1,42.0,30.22,WNW,302,12.0,27.0,79,0.00,,,1.36,weatherlink.com 1.10,2013-05-02 19:32:00,
2013-05-02 14:47:00,48.4,42.0,30.23,NNW,340,12.0,34.0,78,0.00,,,1.36,weatherlink.com 1.10,2013-05-02 19:47:00,
2013-05-02 15:02:00,48.5,42.0,30.22,WSW,255,17.0,30.0,77,0.00,,,1.36,weatherlink.com 1.10,2013-05-02 20:02:00,
2013-05-02 15:17:00,48.5,42.0,30.22,NW,304,16.0,31.0,77,0.00,,,1.36,weatherlink.com 1.10,2013-05-02 20:17:00,
2013-05-02 15:32:00,48.6,41.0,30.22,NW,306,16.0,29.0,75,0.00,,,1.36,weatherlink.com 1.10,2013-05-02 20:32:00,
2013-05-02 15:47:00,48.7,41.0,30.22,WNW,303,12.0,30.0,76,0.00,,,1.36,weatherlink.com 1.10,2013-05-02 20:47:00,
2013-05-02 16:02:00,48.2,41.0,30.22,NW,311,9.0,34.0,75,0.00,,,1.36,weatherlink.com 1.10,2013-05-02 21:02:00,
2013-05-02 16:17:00,48.1,41.0,30.21,NNW,343,17.0,29.0,75,0.00,,,1.36,weatherlink.com 1.10,2013-05-02 21:17:00,
2013-05-02 16:32:00,47.6,40.0,30.22,WNW,290,13.0,27.0,76,0.00,,,1.36,weatherlink.com 1.10,2013-05-02 21:32:00,
2013-05-02 16:47:00,47.5,41.0,30.22,NW,312,12.0,22.0,77,0.00,,,1.36,weatherlink.com 1.10,2013-05-02 21:47:00,
2013-05-02 17:02:00,47.5,41.0,30.23,WNW,297,11.0,29.0,78,0.00,,,1.36,weatherlink.com 1.10,2013-05-02 22:02:00,
2013-05-02 17:17:00,47.2,40.0,30.23,NNW,340,8.0,33.0,76,0.00,,,1.36,weatherlink.com 1.10,2013-05-02 22:17:00,
2013-05-02 17:32:00,47.7,40.0,30.22,North,353,21.0,27.0,74,0.00,,,1.36,weatherlink.com 1.10,2013-05-02 22:32:00,
2013-05-02 17:47:00,46.7,39.0,30.22,NW,304,18.0,34.0,75,0.00,,,1.36,weatherlink.com 1.10,2013-05-02 22:47:00,
2013-05-02 18:02:00,46.5,39.0,30.22,North,9,15.0,29.0,74,0.00,,,1.36,weatherlink.com 1.10,2013-05-02 23:02:00,
2013-05-02 18:17:00,46.9,38.0,30.22,NW,310,20.0,33.0,72,0.00,,,1.36,weatherlink.com 1.10,2013-05-02 23:17:00,
2013-05-02 18:32:00,46.5,39.0,30.23,WNW,298,9.0,29.0,75,0.00,,,1.36,weatherlink.com 1.10,2013-05-02 23:32:00,
2013-05-02 18:47:00,46.0,38.0,30.24,North,11,5.0,24.0,74,0.00,,,1.36,weatherlink.com 1.10,2013-05-02 23:47:00,
2013-05-02 19:02:00,45.7,38.0,30.24,NW,307,13.0,26.0,74,0.00,,,1.36,weatherlink.com 1.10,2013-05-03 00:02:00,
2013-05-02 19:17:00,45.5,37.0,30.24,NW,323,10.0,28.0,73,0.00,,,1.36,weatherlink.com 1.10,2013-05-03 00:17:00,
2013-05-02 19:32:00,45.3,37.0,30.26,WNW,292,19.0,30.0,73,0.00,,,1.36,weatherlink.com 1.10,2013-05-03 00:32:00,
2013-05-02 19:47:00,45.1,37.0,30.26,NNW,330,9.0,23.0,73,0.00,,,1.36,weatherlink.com 1.10,2013-05-03 00:47:00,
2013-05-02 20:02:00,44.9,37.0,30.26,NW,316,16.0,33.0,74,0.00,,,1.36,weatherlink.com 1.10,2013-05-03 01:02:00,
2013-05-02 20:17:00,44.9,37.0,30.26,NW,306,11.0,27.0,74,0.00,,,1.36,weatherlink.com 1.10,2013-05-03 01:17:00,
2013-05-02 20:32:00,45.0,37.0,30.26,WNW,303,13.0,24.0,74,0.00,,,1.36,weatherlink.com 1.10,2013-05-03 01:32:00,
2013-05-02 20:47:00,45.2,37.0,30.27,NW,309,8.0,25.0,74,0.00,,,1.36,weatherlink.com 1.10,2013-05-03 01:47:00,
2013-05-02 21:02:00,45.6,37.0,30.28,NW,323,10.0,24.0,73,0.00,,,1.36,weatherlink.com 1.10,2013-05-03 02:02:00,
2013-05-02 21:17:00,46.0,37.0,30.28,WSW,249,15.0,30.0,72,0.00,,,1.36,weatherlink.com 1.10,2013-05-03 02:17:00,
2013-05-02 21:32:00,46.4,37.0,30.29,NW,308,9.0,25.0,71,0.00,,,1.36,weatherlink.com 1.10,2013-05-03 02:32:00,
2013-05-02 21:47:00,46.7,37.0,30.30,WNW,300,14.0,27.0,70,0.00,,,1.36,weatherlink.com 1.10,2013-05-03 02:47:00,
2013-05-02 22:02:00,46.6,37.0,30.30,NW,316,16.0,25.0,70,0.00,,,1.36,weatherlink.com 1.10,2013-05-03 03:02:00,
2013-05-02 22:17:00,46.3,37.0,30.31,NW,314,13.0,30.0,69,0.00,,,1.36,weatherlink.com 1.10,2013-05-03 03:17:00,
2013-05-02 22:32:00,46.1,36.0,30.32,NNE,20,10.0,27.0,69,0.00,,,1.36,weatherlink.com 1.10,2013-05-03 03:32:00,
2013-05-02 22:47:00,45.8,36.0,30.33,WNW,297,7.0,21.0,69,0.00,,,1.36,weatherlink.com 1.10,2013-05-03 03:47:00,
2013-05-02 23:02:00,45.7,36.0,30.33,NNW,329,13.0,22.0,68,0.00,,,1.36,weatherlink.com 1.10,2013-05-03 04:02:00,
2013-05-02 23:17:00,45.4,35.0,30.33,North,355,5.0,21.0,68,0.00,,,1.36,weatherlink.com 1.10,2013-05-03 04:17:00,
2013-05-02 23:32:00,45.3,35.0,30.33,NW,308,12.0,18.0,68,0.00,,,1.36,weatherlink.com 1.10,2013-05-03 04:32:00,
2013-05-02 23:47:00,45.2,35.0,30.33,WNW,294,7.0,18.0,68,0.00,,,1.36,weatherlink.com 1.10,2013-05-03 04:47:00,